createdAt,value
2023-04-03T00:00:57.624Z,11.11
2023-04-03T00:03:24.776Z,11.09
2023-04-03T00:05:52.147Z,11.04
2023-04-03T00:08:19.308Z,11.10
2023-04-03T00:10:46.401Z,11.12
2023-04-03T00:13:14.129Z,11.07
2023-04-03T00:15:41.892Z,10.83
2023-04-03T00:18:09.295Z,10.57
2023-04-03T00:20:36.663Z,10.47
2023-04-03T00:23:03.976Z,10.52
2023-04-03T00:25:31.242Z,10.62
2023-04-03T00:27:58.387Z,10.56
2023-04-03T00:30:25.675Z,10.56
2023-04-03T00:32:53.817Z,10.56
2023-04-03T00:35:22.906Z,10.51
2023-04-03T00:37:53.550Z,10.45
2023-04-03T00:40:21.908Z,10.21
2023-04-03T00:42:52.294Z,10.21
2023-04-03T00:45:19.330Z,10.18
2023-04-03T00:47:47.085Z,10.19
2023-04-03T00:50:14.262Z,10.18
2023-04-03T00:52:41.471Z,10.15
2023-04-03T00:55:11.100Z,10.12
2023-04-03T00:57:39.491Z,10.17
2023-04-03T01:00:11.290Z,10.18
2023-04-03T01:02:41.940Z,10.18
2023-04-03T01:05:11.451Z,9.96
2023-04-03T01:07:39.437Z,9.95
2023-04-03T01:10:10.648Z,9.97
2023-04-03T01:12:40.926Z,9.91
2023-04-03T01:15:19.803Z,9.79
2023-04-03T01:17:50.118Z,9.66
2023-04-03T01:20:32.234Z,9.66
2023-04-03T01:23:08.765Z,9.69
2023-04-03T01:25:57.314Z,9.69
2023-04-03T01:28:26.166Z,9.63
2023-04-03T01:31:11.541Z,9.64
2023-04-03T01:33:40.929Z,9.66
2023-04-03T01:36:09.373Z,9.67
2023-04-03T01:38:36.525Z,9.70
2023-04-03T01:41:03.666Z,9.79
2023-04-03T01:43:31.310Z,9.77
2023-04-03T01:45:58.507Z,9.56
2023-04-03T01:48:25.938Z,9.40
2023-04-03T01:50:53.031Z,9.45
2023-04-03T01:53:20.312Z,9.46
2023-04-03T01:55:47.491Z,9.42
2023-04-03T01:58:14.684Z,9.51
2023-04-03T02:00:41.881Z,9.54
2023-04-03T02:03:09.265Z,9.57
2023-04-03T02:05:36.601Z,9.51
2023-04-03T02:08:03.730Z,9.45
2023-04-03T02:10:31.171Z,9.48
2023-04-03T02:12:58.317Z,9.53
2023-04-03T02:15:26.611Z,9.53
2023-04-03T02:17:53.890Z,9.50
2023-04-03T02:20:22.181Z,9.46
2023-04-03T02:22:49.578Z,9.27
2023-04-03T02:25:16.779Z,9.26
2023-04-03T02:27:43.884Z,9.33
2023-04-03T02:30:11.848Z,9.33
2023-04-03T02:32:39.100Z,9.25
2023-04-03T02:35:07.132Z,9.13
2023-04-03T02:37:34.502Z,9.06
2023-04-03T02:40:01.831Z,8.89
2023-04-03T02:42:30.611Z,8.83
2023-04-03T02:44:59.327Z,8.78
2023-04-03T02:47:29.253Z,8.96
2023-04-03T02:49:56.394Z,8.94
2023-04-03T02:52:23.533Z,8.96
2023-04-03T02:54:52.134Z,8.94
2023-04-03T02:57:20.789Z,9.01
2023-04-03T02:59:47.940Z,9.07
2023-04-03T03:02:15.068Z,9.12
2023-04-03T03:04:42.306Z,9.03
2023-04-03T03:07:09.461Z,9.00
2023-04-03T03:09:36.552Z,9.00
2023-04-03T03:12:03.769Z,9.00
2023-04-03T03:14:31.171Z,9.02
2023-04-03T03:16:58.306Z,8.95
2023-04-03T03:19:25.742Z,8.86
2023-04-03T03:21:53.158Z,8.60
2023-04-03T03:24:20.409Z,8.52
2023-04-03T03:26:48.643Z,8.59
2023-04-03T03:29:16.581Z,8.68
2023-04-03T03:31:44.658Z,8.81
2023-04-03T03:34:11.954Z,8.84
2023-04-03T03:36:39.715Z,8.92
2023-04-03T03:39:06.980Z,8.98
2023-04-03T03:41:34.229Z,8.98
2023-04-03T03:44:01.741Z,8.83
2023-04-03T03:46:31.500Z,8.80
2023-04-03T03:48:58.770Z,8.91
2023-04-03T03:51:25.910Z,8.95
2023-04-03T03:53:53.728Z,8.75
2023-04-03T03:56:21.596Z,8.58
2023-04-03T03:58:48.884Z,8.40
2023-04-03T04:01:16.389Z,8.50
2023-04-03T04:03:47.598Z,8.65
2023-04-03T04:06:19.645Z,8.66
2023-04-03T04:08:46.818Z,8.76
2023-04-03T04:11:15.702Z,8.67
2023-04-03T04:13:44.282Z,8.58
2023-04-03T04:16:13.682Z,8.48
2023-04-03T04:18:40.888Z,8.56
2023-04-03T04:21:08.058Z,8.32
2023-04-03T04:23:35.150Z,8.63
2023-04-03T04:26:02.341Z,8.66
2023-04-03T04:28:33.178Z,8.59
2023-04-03T04:31:02.107Z,8.59
2023-04-03T04:33:30.091Z,8.52
2023-04-03T04:35:59.932Z,8.77
2023-04-03T04:38:27.199Z,9.22
2023-04-03T04:40:54.951Z,9.41
2023-04-03T04:43:22.920Z,9.50
2023-04-03T04:46:12.703Z,9.45
2023-04-03T04:48:46.004Z,9.39
2023-04-03T04:51:13.845Z,9.61
2023-04-03T04:53:42.070Z,9.81
2023-04-03T04:56:10.461Z,9.99
2023-04-03T04:58:39.352Z,10.24
2023-04-03T05:01:09.296Z,10.34
2023-04-03T05:03:41.797Z,10.46
2023-04-03T05:06:09.242Z,10.32
2023-04-03T05:08:37.964Z,10.32
2023-04-03T05:11:05.729Z,10.44
2023-04-03T05:13:34.352Z,10.46
2023-04-03T05:16:02.487Z,10.57
2023-04-03T05:18:29.805Z,10.39
2023-04-03T05:21:00.020Z,10.34
2023-04-03T05:23:27.744Z,10.53
2023-04-03T05:25:56.691Z,10.68
2023-04-03T05:28:24.124Z,10.80
2023-04-03T05:30:58.938Z,10.89
2023-04-03T05:33:31.114Z,10.83
2023-04-03T05:36:06.685Z,10.50
2023-04-03T05:38:38.044Z,10.53
2023-04-03T05:41:05.336Z,10.69
2023-04-03T05:43:32.664Z,10.76
2023-04-03T05:45:59.833Z,10.77
2023-04-03T05:48:28.810Z,10.77
2023-04-03T05:50:57.180Z,10.84
2023-04-03T05:53:30.615Z,10.82
2023-04-03T05:56:01.185Z,10.96
2023-04-03T05:58:31.514Z,10.97
2023-04-03T06:00:58.882Z,11.00
2023-04-03T06:03:26.771Z,10.98
2023-04-03T06:05:54.280Z,11.07
2023-04-03T06:08:21.510Z,11.30
2023-04-03T06:10:48.943Z,11.29
2023-04-03T06:13:16.208Z,10.80
2023-04-03T06:15:43.343Z,11.00
2023-04-03T06:18:10.902Z,11.15
2023-04-03T06:20:38.708Z,11.27
2023-04-03T06:23:07.435Z,11.53
2023-04-03T06:25:36.148Z,11.18
2023-04-03T06:28:03.281Z,11.08
2023-04-03T06:30:30.509Z,11.03
2023-04-03T06:32:57.742Z,11.28
2023-04-03T06:35:24.896Z,11.42
2023-04-03T06:37:51.987Z,11.66
2023-04-03T06:40:24.673Z,11.69
2023-04-03T06:42:51.897Z,11.71
2023-04-03T06:45:21.262Z,11.71
2023-04-03T06:47:48.505Z,11.84
2023-04-03T06:50:16.376Z,11.98
2023-04-03T06:52:43.767Z,12.20
2023-04-03T06:55:11.356Z,12.14
2023-04-03T06:57:38.980Z,12.06
2023-04-03T07:00:08.231Z,12.41
2023-04-03T07:02:35.766Z,12.58
2023-04-03T07:05:02.986Z,13.00
2023-04-03T07:07:30.893Z,13.35
2023-04-03T07:09:58.024Z,13.69
2023-04-03T07:12:25.251Z,13.83
2023-04-03T07:14:52.486Z,14.03
2023-04-03T07:17:19.643Z,14.15
2023-04-03T07:19:46.762Z,14.24
2023-04-03T07:22:14.144Z,14.13
2023-04-03T07:24:41.411Z,14.17
2023-04-03T07:27:09.644Z,14.41
2023-04-03T07:29:37.048Z,14.38
2023-04-03T07:32:04.746Z,14.11
2023-04-03T07:34:32.328Z,13.97
2023-04-03T07:37:00.226Z,13.83
2023-04-03T07:39:27.451Z,14.08
2023-04-03T07:41:56.405Z,14.17
2023-04-03T07:44:23.505Z,13.95
2023-04-03T07:46:51.645Z,13.56
2023-04-03T07:49:19.329Z,13.42
2023-04-03T07:51:46.527Z,13.58
2023-04-03T07:54:13.736Z,13.86
2023-04-03T07:56:40.858Z,13.64
2023-04-03T07:59:07.943Z,13.78
2023-04-03T08:01:35.085Z,13.47
2023-04-03T08:04:02.852Z,13.68
2023-04-03T08:06:45.730Z,13.86
2023-04-03T08:09:17.957Z,14.13
2023-04-03T08:11:45.679Z,14.01
2023-04-03T08:14:17.704Z,13.74
2023-04-03T08:16:47.219Z,13.64
2023-04-03T08:19:25.528Z,13.58
2023-04-03T08:22:12.712Z,13.63
2023-04-03T08:24:45.769Z,13.19
2023-04-03T08:27:19.568Z,13.59
2023-04-03T08:29:46.795Z,14.02
2023-04-03T08:32:14.005Z,14.15
2023-04-03T08:34:41.983Z,13.99
2023-04-03T08:37:09.059Z,13.20
2023-04-03T08:39:36.739Z,13.27
2023-04-03T08:42:13.527Z,13.76
2023-04-03T08:44:56.961Z,13.56
2023-04-03T08:47:40.131Z,13.22
2023-04-03T08:50:14.006Z,13.41
2023-04-03T08:52:53.227Z,14.06
2023-04-03T08:55:36.473Z,14.53
2023-04-03T08:58:08.477Z,14.71
2023-04-03T09:01:11.752Z,14.67
2023-04-03T09:03:42.065Z,14.42
2023-04-03T09:06:21.688Z,14.20
2023-04-03T09:08:57.047Z,14.21
2023-04-03T09:11:40.555Z,14.24
2023-04-03T09:14:26.158Z,14.14
2023-04-03T09:17:11.458Z,14.24
2023-04-03T09:20:00.239Z,14.23
2023-04-03T09:22:30.242Z,14.47
2023-04-03T09:25:01.318Z,13.99
2023-04-03T09:27:30.094Z,13.83
2023-04-03T09:29:58.672Z,14.52
2023-04-03T09:32:36.436Z,14.75
2023-04-03T09:35:35.836Z,14.48
2023-04-03T09:38:14.329Z,14.76
2023-04-03T09:41:18.274Z,15.18
2023-04-03T09:43:54.585Z,15.37
2023-04-03T09:46:35.936Z,15.17
2023-04-03T09:49:09.715Z,15.25
2023-04-03T09:51:37.875Z,15.35
2023-04-03T09:54:32.449Z,15.42
2023-04-03T09:57:14.227Z,15.39
2023-04-03T10:00:02.391Z,15.69
2023-04-03T10:02:41.944Z,15.73
2023-04-03T10:05:32.508Z,15.32
2023-04-03T10:08:14.612Z,14.25
2023-04-03T10:10:46.762Z,14.77
2023-04-03T10:13:21.633Z,14.86
2023-04-03T10:15:56.510Z,15.19
2023-04-03T10:18:47.984Z,15.68
2023-04-03T10:21:43.971Z,14.82
2023-04-03T10:24:31.062Z,15.28
2023-04-03T10:27:11.829Z,15.54
2023-04-03T10:29:52.352Z,15.37
2023-04-03T10:32:37.571Z,15.55
2023-04-03T10:35:21.782Z,14.72
2023-04-03T10:38:17.012Z,14.71
2023-04-03T10:40:46.932Z,14.89
2023-04-03T10:43:23.046Z,15.05
2023-04-03T10:46:11.917Z,14.88
2023-04-03T10:48:41.990Z,15.02
2023-04-03T10:51:17.356Z,15.25
2023-04-03T10:53:56.492Z,15.04
2023-04-03T10:56:42.758Z,14.86
2023-04-03T10:59:38.260Z,15.39
2023-04-03T11:02:08.177Z,15.51
2023-04-03T11:04:40.596Z,15.18
2023-04-03T11:07:18.678Z,15.24
2023-04-03T11:09:49.710Z,15.12
2023-04-03T11:12:34.655Z,15.08
2023-04-03T11:15:04.117Z,15.29
2023-04-03T11:17:45.419Z,15.36
2023-04-03T11:20:28.739Z,15.67
2023-04-03T11:23:04.278Z,15.58
2023-04-03T11:25:35.099Z,15.55
2023-04-03T11:28:05.713Z,15.55
2023-04-03T11:30:53.975Z,15.14
2023-04-03T11:33:24.935Z,15.16
2023-04-03T11:36:24.870Z,14.88
2023-04-03T11:39:03.232Z,14.88
2023-04-03T11:41:32.681Z,15.01
2023-04-03T11:44:27.331Z,15.39
2023-04-03T11:47:02.058Z,15.68
2023-04-03T11:49:51.490Z,15.76
2023-04-03T11:52:43.800Z,15.78
2023-04-03T11:55:20.550Z,15.87
2023-04-03T11:57:59.940Z,15.87
2023-04-03T12:00:48.254Z,15.90
2023-04-03T12:03:30.937Z,15.88
2023-04-03T12:06:01.588Z,15.72
2023-04-03T12:08:53.762Z,15.59
2023-04-03T12:11:32.126Z,15.58
2023-04-03T12:13:59.185Z,15.54
2023-04-03T12:16:47.006Z,15.56
2023-04-03T12:19:44.491Z,15.44
2023-04-03T12:22:15.112Z,15.39
2023-04-03T12:24:45.685Z,15.14
2023-04-03T12:27:22.919Z,15.10
2023-04-03T12:30:05.321Z,15.23
2023-04-03T12:32:44.238Z,14.59
2023-04-03T12:35:20.503Z,14.71
2023-04-03T12:37:50.323Z,14.45
2023-04-03T12:40:43.885Z,14.55
2023-04-03T12:43:21.929Z,14.73
2023-04-03T12:46:04.879Z,14.79
2023-04-03T12:48:38.955Z,14.81
2023-04-03T12:51:07.080Z,14.89
2023-04-03T12:53:37.319Z,14.84
2023-04-03T12:56:28.076Z,14.99
2023-04-03T12:58:56.402Z,14.96
2023-04-03T13:01:26.459Z,14.72
2023-04-03T13:03:56.949Z,14.92
2023-04-03T13:06:28.892Z,15.07
2023-04-03T13:08:59.084Z,15.07
2023-04-03T13:11:37.183Z,15.03
2023-04-03T13:14:07.057Z,14.93
2023-04-03T13:16:34.890Z,15.05
2023-04-03T13:19:02.287Z,15.10
2023-04-03T13:21:32.845Z,14.95
2023-04-03T13:24:14.900Z,14.54
2023-04-03T13:26:44.044Z,14.75
2023-04-03T13:29:31.034Z,14.26
2023-04-03T13:32:01.127Z,13.66
2023-04-03T13:34:46.656Z,13.88
2023-04-03T13:37:27.620Z,14.18
2023-04-03T13:40:21.128Z,14.57
2023-04-03T13:43:03.277Z,14.71
2023-04-03T13:45:33.616Z,14.76
2023-04-03T13:48:24.097Z,14.76
2023-04-03T13:51:01.986Z,14.52
2023-04-03T13:53:32.053Z,14.67
2023-04-03T13:56:05.172Z,14.81
2023-04-03T13:58:34.982Z,14.72
2023-04-03T14:01:22.240Z,14.47
2023-04-03T14:04:02.054Z,14.69
2023-04-03T14:06:30.460Z,14.69
2023-04-03T14:08:57.512Z,14.68
2023-04-03T14:11:30.716Z,14.32
2023-04-03T14:14:05.815Z,14.21
2023-04-03T14:16:38.579Z,14.10
2023-04-03T14:19:06.142Z,14.35
2023-04-03T14:21:33.553Z,14.35
2023-04-03T14:24:01.038Z,13.98
2023-04-03T14:26:31.468Z,13.69
2023-04-03T14:28:58.629Z,13.68
2023-04-03T14:31:25.983Z,13.73
2023-04-03T14:33:53.315Z,13.87
2023-04-03T14:36:28.323Z,13.68
2023-04-03T14:38:56.563Z,13.82
2023-04-03T14:41:25.999Z,14.03
2023-04-03T14:43:53.863Z,13.79
2023-04-03T14:46:31.283Z,13.83
2023-04-03T14:49:19.031Z,13.85
2023-04-03T14:51:46.408Z,14.00
2023-04-03T14:54:22.678Z,13.88
2023-04-03T14:56:50.013Z,13.81
2023-04-03T14:59:18.634Z,13.87
2023-04-03T15:01:45.879Z,14.15
2023-04-03T15:04:18.635Z,14.05
2023-04-03T15:06:46.680Z,14.00
2023-04-03T15:09:23.565Z,14.42
2023-04-03T15:11:53.063Z,14.47
2023-04-03T15:14:35.167Z,14.36
2023-04-03T15:17:14.930Z,14.14
2023-04-03T15:19:42.675Z,13.86
2023-04-03T15:22:18.841Z,13.77
2023-04-03T15:24:46.755Z,13.91
2023-04-03T15:27:16.428Z,13.76
2023-04-03T15:29:44.676Z,13.76
2023-04-03T15:32:12.398Z,13.79
2023-04-03T15:34:40.114Z,13.93
2023-04-03T15:37:07.261Z,14.04
2023-04-03T15:39:34.447Z,14.19
2023-04-03T15:42:07.202Z,13.99
2023-04-03T15:44:35.614Z,14.05
2023-04-03T15:47:03.198Z,14.01
2023-04-03T15:49:31.248Z,14.02
2023-04-03T15:51:58.346Z,13.85
2023-04-03T15:54:26.429Z,13.71
2023-04-03T15:56:54.295Z,13.63
2023-04-03T15:59:21.605Z,13.57
2023-04-03T16:01:49.817Z,13.54
2023-04-03T16:04:18.662Z,13.50
2023-04-03T16:06:46.649Z,13.66
2023-04-03T16:09:13.881Z,13.72
2023-04-03T16:11:41.270Z,13.78
2023-04-03T16:14:09.061Z,13.63
2023-04-03T16:16:36.727Z,13.64
2023-04-03T16:19:05.084Z,13.72
2023-04-03T16:21:33.810Z,13.71
2023-04-03T16:24:02.274Z,13.62
2023-04-03T16:26:29.833Z,13.56
2023-04-03T16:28:56.998Z,13.61
2023-04-03T16:31:26.145Z,13.56
2023-04-03T16:33:54.046Z,13.65
2023-04-03T16:36:21.247Z,13.38
2023-04-03T16:38:48.380Z,13.35
2023-04-03T16:41:15.600Z,13.45
2023-04-03T16:46:14.763Z,13.58
2023-04-03T16:48:42.159Z,13.63
2023-04-03T16:51:09.214Z,13.66
2023-04-03T16:53:36.951Z,13.64
2023-04-03T16:56:04.087Z,13.45
2023-04-03T16:58:31.428Z,13.49
2023-04-03T17:00:58.718Z,13.55
2023-04-03T17:03:26.930Z,13.26
2023-04-03T17:05:54.206Z,13.18
2023-04-03T17:08:21.662Z,13.10
2023-04-03T17:10:50.206Z,13.28
2023-04-03T17:13:18.108Z,13.20
2023-04-03T17:15:45.248Z,13.01
2023-04-03T17:18:12.437Z,13.07
2023-04-03T17:20:40.798Z,13.08
2023-04-03T17:23:07.988Z,13.19
2023-04-03T17:25:35.141Z,13.21
2023-04-03T17:28:02.242Z,13.05
2023-04-03T17:30:29.384Z,12.94
2023-04-03T17:32:56.564Z,13.08
2023-04-03T17:35:24.050Z,13.13
2023-04-03T17:37:51.273Z,13.04
2023-04-03T17:40:18.866Z,12.78
2023-04-03T17:42:46.187Z,12.75
2023-04-03T17:45:13.525Z,12.64
2023-04-03T17:47:40.956Z,12.67
2023-04-03T17:50:08.847Z,12.55
2023-04-03T17:52:36.327Z,12.66
2023-04-03T17:55:03.980Z,12.59
2023-04-03T17:57:31.736Z,12.74
2023-04-03T17:59:58.979Z,12.68
2023-04-03T18:02:26.389Z,12.53
2023-04-03T18:04:54.342Z,12.60
2023-04-03T18:07:21.822Z,12.63
2023-04-03T18:09:50.781Z,12.65
2023-04-03T18:12:18.383Z,12.71
2023-04-03T18:14:46.226Z,12.93
2023-04-03T18:17:13.594Z,12.95
2023-04-03T18:19:41.313Z,12.95
2023-04-03T18:22:17.453Z,12.84
2023-04-03T18:24:44.885Z,12.75
2023-04-03T18:27:14.849Z,12.74
2023-04-03T18:29:45.245Z,12.67
2023-04-03T18:32:15.036Z,12.71
2023-04-03T18:34:42.254Z,12.80
2023-04-03T18:37:09.593Z,13.04
2023-04-03T18:39:37.033Z,13.18
2023-04-03T18:42:08.903Z,13.08
2023-04-03T18:44:38.190Z,13.03
2023-04-03T18:47:05.571Z,13.02
2023-04-03T18:49:34.644Z,12.80
2023-04-03T18:52:02.299Z,12.55
2023-04-03T18:54:29.436Z,12.13
2023-04-03T18:56:56.644Z,12.03
2023-04-03T18:59:25.217Z,12.15
2023-04-03T19:01:52.488Z,12.29
2023-04-03T19:04:19.597Z,12.40
2023-04-03T19:06:46.874Z,12.20
2023-04-03T19:09:14.059Z,12.37
2023-04-03T19:11:41.503Z,12.41
2023-04-03T19:16:38.762Z,12.63
2023-04-03T19:19:06.131Z,12.47
2023-04-03T19:21:35.158Z,12.55
2023-04-03T19:24:02.309Z,12.48
2023-04-03T19:26:31.368Z,12.51
2023-04-03T19:28:58.464Z,12.56
2023-04-03T19:31:25.748Z,12.51
2023-04-03T19:33:53.087Z,12.45
2023-04-03T19:36:20.522Z,12.38
2023-04-03T19:38:47.917Z,12.16
2023-04-03T19:41:22.693Z,12.25
2023-04-03T19:43:52.739Z,12.33
2023-04-03T19:46:23.248Z,12.37
2023-04-03T19:48:50.452Z,12.12
2023-04-03T19:51:17.751Z,12.01
2023-04-03T19:53:47.385Z,11.68
2023-04-03T19:56:18.146Z,11.64
2023-04-03T19:58:45.774Z,11.67
2023-04-03T20:01:12.977Z,11.64
2023-04-03T20:03:40.313Z,11.71
2023-04-03T20:06:07.400Z,11.54
2023-04-03T20:08:37.160Z,11.57
2023-04-03T20:11:04.349Z,11.57
2023-04-03T20:13:33.197Z,11.59
2023-04-03T20:16:07.697Z,11.64
2023-04-03T20:18:35.641Z,11.65
2023-04-03T20:21:05.110Z,11.78
2023-04-03T20:23:32.663Z,11.87
2023-04-03T20:26:10.489Z,12.12
2023-04-03T20:28:42.350Z,12.07
2023-04-03T20:31:10.118Z,12.05
2023-04-03T20:33:38.113Z,12.04
2023-04-03T20:36:05.280Z,11.96
2023-04-03T20:38:32.353Z,11.89
2023-04-03T20:41:00.347Z,11.90
2023-04-03T20:43:28.508Z,11.85
2023-04-03T20:45:55.871Z,11.77
2023-04-03T20:48:23.747Z,11.82
2023-04-03T20:50:51.143Z,11.80
2023-04-03T20:53:19.591Z,11.82
2023-04-03T20:56:00.737Z,11.91
2023-04-03T20:58:30.425Z,11.78
2023-04-03T21:00:57.754Z,11.45
2023-04-03T21:03:26.661Z,11.42
2023-04-03T21:06:03.040Z,11.43
2023-04-03T21:09:07.459Z,11.58
2023-04-03T21:12:12.046Z,11.41
2023-04-03T21:15:16.406Z,11.65
2023-04-03T21:18:07.822Z,11.54
2023-04-03T21:20:35.279Z,11.53
2023-04-03T21:23:02.423Z,11.71
2023-04-03T21:25:29.915Z,11.85
2023-04-03T21:27:57.246Z,11.93
2023-04-03T21:30:24.531Z,11.89
2023-04-03T21:32:51.906Z,11.70
2023-04-03T21:35:19.117Z,11.82
2023-04-03T21:37:46.405Z,11.87
2023-04-03T21:40:13.591Z,11.76
2023-04-03T21:42:40.686Z,11.69
2023-04-03T21:45:08.330Z,11.60
2023-04-03T21:47:36.686Z,11.46
2023-04-03T21:50:04.089Z,11.23
2023-04-03T21:52:31.756Z,11.07
2023-04-03T21:54:58.838Z,10.99
2023-04-03T21:57:25.883Z,10.92
2023-04-03T21:59:53.125Z,10.77
2023-04-03T22:02:20.539Z,10.79
2023-04-03T22:04:47.811Z,10.82
2023-04-03T22:07:14.917Z,10.74
2023-04-03T22:09:42.139Z,10.81
2023-04-03T22:12:11.950Z,10.98
2023-04-03T22:14:39.570Z,11.02
2023-04-03T22:17:07.363Z,10.88
2023-04-03T22:19:34.521Z,10.72
2023-04-03T22:22:03.702Z,10.78
2023-04-03T22:24:31.166Z,10.58
2023-04-03T22:26:58.231Z,10.60
2023-04-03T22:29:25.567Z,10.51
2023-04-03T22:31:52.734Z,10.48
2023-04-03T22:34:20.694Z,10.51
2023-04-03T22:36:47.795Z,10.48
2023-04-03T22:39:16.513Z,10.35
2023-04-03T22:41:45.312Z,10.40
2023-04-03T22:44:12.874Z,10.44
2023-04-03T22:46:40.002Z,10.16
2023-04-03T22:49:07.585Z,10.13
2023-04-03T22:51:34.692Z,10.08
2023-04-03T22:54:01.908Z,10.21
2023-04-03T22:56:29.403Z,10.30
2023-04-03T22:58:57.305Z,10.19
2023-04-03T23:01:25.277Z,10.27
2023-04-03T23:03:52.464Z,10.21
2023-04-03T23:06:19.879Z,10.13
2023-04-03T23:08:46.962Z,10.14
2023-04-03T23:11:14.096Z,10.17
2023-04-03T23:13:41.340Z,10.05
2023-04-03T23:16:09.073Z,9.99
2023-04-03T23:18:39.865Z,9.91
2023-04-03T23:21:08.037Z,9.77
2023-04-03T23:23:35.158Z,9.70
2023-04-03T23:26:02.978Z,10.02
2023-04-03T23:28:30.689Z,9.99
2023-04-03T23:31:02.853Z,10.29
2023-04-03T23:33:31.883Z,10.33
2023-04-03T23:36:06.759Z,10.41
2023-04-03T23:38:34.912Z,10.25
2023-04-03T23:41:02.336Z,10.26
2023-04-03T23:43:29.470Z,10.47
2023-04-03T23:45:56.736Z,10.53
2023-04-03T23:48:24.072Z,10.53
2023-04-03T23:50:51.383Z,10.57
2023-04-03T23:53:18.561Z,10.66
2023-04-03T23:55:45.958Z,10.60
2023-04-03T23:58:13.119Z,10.50
